This is the latest recevied weather packets stored in our database for station/object G4KVI. If no packets are shown the sender has not sent any weather packets the latest 10 day(s).
| Time | Temp. | Humidity | Pressure | Rain* | Wind** | Luminosity | Snow |
|---|---|---|---|---|---|---|---|
| 1777110004 | 15.56° C | 37% | 1023.4 hPa | 0 mm | - | 549 W/m² | - |
| 1777109704 | 15° C | 40% | 1023.8 hPa | 0 mm | - | 550 W/m² | - |
| 1777109404 | 15° C | 40% | 1023.8 hPa | 0 mm | - | 538 W/m² | - |
| 1777109104 | 14.44° C | 39% | 1023.6 hPa | 0 mm | - | 525 W/m² | - |
| 1777108804 | 14.44° C | 40% | 1023.7 hPa | 0 mm | - | 518 W/m² | - |
| 1777108504 | 14.44° C | 39% | 1023.6 hPa | 0 mm | - | 508 W/m² | - |
| 1777108204 | 15° C | 40% | 1023.8 hPa | 0 mm | - | 497 W/m² | - |
| 1777107904 | 13.89° C | 41% | 1023.7 hPa | 0 mm | - | 483 W/m² | - |
| 1777107604 | 13.33° C | 41% | 1023.8 hPa | 0 mm | - | 472 W/m² | - |
| 1777107304 | 12.78° C | 42% | 1023.6 hPa | 0 mm | - | 461 W/m² | - |
| 1777107004 | 12.78° C | 40% | 1023.8 hPa | 0 mm | - | 447 W/m² | - |
| 1777106704 | 12.22° C | 41% | 1023.7 hPa | 0 mm | - | 435 W/m² | - |
| 1777106104 | 12.22° C | 45% | 1023.4 hPa | 0 mm | - | 413 W/m² | - |
| 1777105804 | 11.11° C | 44% | 1023.8 hPa | 0 mm | - | 402 W/m² | - |
| 1777105504 | 11.67° C | 45% | 1023.7 hPa | 0 mm | - | 389 W/m² | - |
| 1777105204 | 11.67° C | 44% | 1023.6 hPa | 0 mm | - | 377 W/m² | - |
| 1777104904 | 11.67° C | 43% | 1023.7 hPa | 0 mm | - | 364 W/m² | - |
| 1777104604 | 11.11° C | 46% | 1023.7 hPa | 0 mm | - | 350 W/m² | - |
| 1777104304 | 10.56° C | 48% | 1023.8 hPa | 0 mm | - | 339 W/m² | - |
| 1777104004 | 11.11° C | 50% | 1023.9 hPa | 0 mm | - | 304 W/m² | - |
| 1777103704 | 11.11° C | 50% | 1023.6 hPa | 0 mm | - | 304 W/m² | - |
| 1777103404 | 10.56° C | 51% | 1024 hPa | 0 mm | - | 285 W/m² | - |
| 1777103104 | 8.89° C | 61% | 1023.6 hPa | 0 mm | - | 150 W/m² | - |
| 1777102804 | 8.89° C | 61% | 1023.7 hPa | 0 mm | - | 150 W/m² | - |
| 1777102504 | 8.89° C | 61% | 1023.9 hPa | 0 mm | - | 150 W/m² | - |
* Rain latest hour (hover to see other rain measurements)
** Current wind speed in m/s (hover to see current wind gust speed)